createdAt,value
2023-04-21T00:00:52.589Z,42.61
2023-04-21T00:03:20.276Z,43.09
2023-04-21T00:05:47.035Z,42.94
2023-04-21T00:08:13.882Z,43.05
2023-04-21T00:10:40.598Z,43.05
2023-04-21T00:13:07.243Z,43.08
2023-04-21T00:15:33.622Z,43.11
2023-04-21T00:18:01.729Z,43.20
2023-04-21T00:20:28.320Z,43.06
2023-04-21T00:22:55.817Z,43.19
2023-04-21T00:25:22.980Z,43.54
2023-04-21T00:27:49.604Z,43.32
2023-04-21T00:30:16.487Z,43.42
2023-04-21T00:32:43.186Z,43.56
2023-04-21T00:35:10.579Z,43.73
2023-04-21T00:37:37.047Z,43.43
2023-04-21T00:40:04.757Z,43.39
2023-04-21T00:42:31.568Z,43.22
2023-04-21T00:44:57.911Z,43.26
2023-04-21T00:47:24.652Z,43.43
2023-04-21T00:49:51.335Z,43.37
2023-04-21T00:52:18.618Z,43.50
2023-04-21T00:54:45.657Z,43.16
2023-04-21T00:57:12.319Z,43.11
2023-04-21T00:59:38.685Z,43.26
2023-04-21T01:02:07.903Z,43.15
2023-04-21T01:04:38.966Z,43.30
2023-04-21T01:07:07.292Z,43.40
2023-04-21T01:09:34.769Z,43.40
2023-04-21T01:12:11.574Z,43.89
2023-04-21T01:14:39.626Z,43.54
2023-04-21T01:17:08.010Z,43.39
2023-04-21T01:19:42.099Z,43.54
2023-04-21T01:22:12.942Z,43.04
2023-04-21T01:24:45.079Z,43.64
2023-04-21T01:27:20.336Z,43.47
2023-04-21T01:29:49.851Z,43.46
2023-04-21T01:32:19.399Z,43.47
2023-04-21T01:34:46.289Z,43.47
2023-04-21T01:37:15.718Z,43.62
2023-04-21T01:39:44.719Z,43.66
2023-04-21T01:42:11.697Z,43.66
2023-04-21T01:44:39.108Z,43.54
2023-04-21T01:47:06.215Z,43.70
2023-04-21T01:49:32.848Z,43.94
2023-04-21T01:51:59.426Z,43.53
2023-04-21T01:54:26.386Z,43.44
2023-04-21T01:56:52.818Z,43.48
2023-04-21T01:59:19.458Z,43.86
2023-04-21T02:01:46.334Z,43.57
2023-04-21T02:04:12.914Z,43.57
2023-04-21T02:06:39.592Z,43.60
2023-04-21T02:09:06.145Z,43.73
2023-04-21T02:11:32.803Z,43.48
2023-04-21T02:14:01.494Z,43.55
2023-04-21T02:16:27.884Z,43.79
2023-04-21T02:18:56.876Z,43.41
2023-04-21T02:21:24.419Z,43.66
2023-04-21T02:23:52.362Z,43.68
2023-04-21T02:26:19.705Z,43.48
2023-04-21T02:28:46.702Z,43.52
2023-04-21T02:31:13.725Z,43.83
2023-04-21T02:33:40.358Z,43.64
2023-04-21T02:36:06.944Z,43.79
2023-04-21T02:38:33.344Z,43.61
2023-04-21T02:40:59.923Z,43.74
2023-04-21T02:43:26.923Z,43.83
2023-04-21T02:45:53.308Z,44.06
2023-04-21T02:48:25.102Z,43.87
2023-04-21T02:50:53.883Z,43.69
2023-04-21T02:53:21.075Z,43.53
2023-04-21T02:55:47.996Z,43.70
2023-04-21T02:58:14.779Z,44.00
2023-04-21T03:00:41.482Z,43.87
2023-04-21T03:03:08.415Z,43.76
2023-04-21T03:05:36.263Z,44.28
2023-04-21T03:08:02.947Z,43.68
2023-04-21T03:10:29.379Z,44.24
2023-04-21T03:12:56.346Z,44.27
2023-04-21T03:15:23.016Z,44.56
2023-04-21T03:17:52.010Z,44.48
2023-04-21T03:20:18.604Z,44.37
2023-04-21T03:22:44.990Z,44.47
2023-04-21T03:25:12.127Z,44.62
2023-04-21T03:27:41.792Z,44.42
2023-04-21T03:30:08.951Z,44.79
2023-04-21T03:32:35.552Z,44.97
2023-04-21T03:35:01.954Z,44.90
2023-04-21T03:37:28.668Z,44.66
2023-04-21T03:39:55.301Z,45.06
2023-04-21T03:42:26.029Z,45.29
2023-04-21T03:44:52.352Z,45.33
2023-04-21T03:47:18.697Z,45.41
2023-04-21T03:49:45.282Z,45.38
2023-04-21T03:52:11.983Z,45.54
2023-04-21T03:54:38.397Z,45.40
2023-04-21T03:57:05.413Z,45.26
2023-04-21T03:59:31.998Z,45.48
2023-04-21T04:01:58.376Z,45.46
2023-04-21T04:04:24.900Z,45.31
2023-04-21T04:06:51.414Z,45.31
2023-04-21T04:09:18.237Z,45.38
2023-04-21T04:11:44.865Z,45.57
2023-04-21T04:14:11.400Z,45.35
2023-04-21T04:16:38.032Z,45.62
2023-04-21T04:19:04.986Z,45.67
2023-04-21T04:21:32.626Z,45.81
2023-04-21T04:23:59.388Z,45.58
2023-04-21T04:26:26.440Z,45.87
2023-04-21T04:28:53.397Z,45.81
2023-04-21T04:31:20.073Z,45.91
2023-04-21T04:33:46.563Z,45.91
2023-04-21T04:36:12.997Z,45.92
2023-04-21T04:38:40.264Z,45.93
2023-04-21T04:41:09.077Z,46.26
2023-04-21T04:43:41.732Z,46.22
2023-04-21T04:46:13.307Z,46.37
2023-04-21T04:48:39.963Z,46.58
2023-04-21T04:51:06.804Z,46.57
2023-04-21T04:53:33.237Z,46.75
2023-04-21T04:55:59.811Z,46.54
2023-04-21T04:58:26.693Z,46.55
2023-04-21T05:00:53.162Z,46.69
2023-04-21T05:03:22.117Z,46.77
2023-04-21T05:05:48.596Z,46.91
2023-04-21T05:08:17.247Z,46.79
2023-04-21T05:10:44.663Z,46.79
2023-04-21T05:13:11.027Z,47.01
2023-04-21T05:15:37.679Z,47.00
2023-04-21T05:18:04.366Z,46.88
2023-04-21T05:20:30.878Z,47.47
2023-04-21T05:22:57.272Z,47.01
2023-04-21T05:25:23.754Z,47.01
2023-04-21T05:27:50.447Z,47.15
2023-04-21T05:30:18.045Z,47.19
2023-04-21T05:32:44.442Z,47.27
2023-04-21T05:35:11.262Z,47.44
2023-04-21T05:37:37.647Z,47.22
2023-04-21T05:40:04.852Z,47.48
2023-04-21T05:42:31.206Z,47.53
2023-04-21T05:44:58.087Z,47.38
2023-04-21T05:47:24.424Z,47.82
2023-04-21T05:49:54.234Z,48.53
2023-04-21T05:52:21.810Z,47.89
2023-04-21T05:54:48.347Z,47.91
2023-04-21T05:57:16.540Z,47.92
2023-04-21T05:59:43.911Z,47.96
2023-04-21T06:02:11.622Z,47.77
2023-04-21T06:04:38.207Z,47.92
2023-04-21T06:07:09.689Z,47.84
2023-04-21T06:09:36.722Z,48.12
2023-04-21T06:12:03.428Z,48.07
2023-04-21T06:14:30.067Z,48.23
2023-04-21T06:16:56.433Z,48.08
2023-04-21T06:19:22.859Z,48.04
2023-04-21T06:21:49.274Z,48.27
2023-04-21T06:24:16.821Z,48.01
2023-04-21T06:26:43.465Z,48.18
2023-04-21T06:29:10.043Z,48.25
2023-04-21T06:31:36.780Z,48.22
2023-04-21T06:34:03.397Z,48.47
2023-04-21T06:36:30.876Z,48.37
2023-04-21T06:38:57.262Z,48.69
2023-04-21T06:41:24.903Z,48.49
2023-04-21T06:43:51.411Z,48.55
2023-04-21T06:46:18.378Z,48.29
2023-04-21T06:48:44.925Z,48.22
2023-04-21T06:51:12.663Z,48.39
2023-04-21T06:53:41.640Z,48.31
2023-04-21T06:56:07.987Z,48.12
2023-04-21T06:58:34.360Z,48.24
2023-04-21T07:01:01.217Z,48.68
2023-04-21T07:03:30.160Z,48.61
2023-04-21T07:05:56.729Z,48.40
2023-04-21T07:08:23.129Z,48.42
2023-04-21T07:10:49.510Z,48.72
2023-04-21T07:13:17.921Z,48.41
2023-04-21T07:15:44.568Z,48.27
2023-04-21T07:18:11.271Z,48.58
2023-04-21T07:20:37.962Z,48.51
2023-04-21T07:23:04.374Z,48.28
2023-04-21T07:25:30.988Z,48.71
2023-04-21T07:27:57.428Z,48.45
2023-04-21T07:30:23.830Z,48.54
2023-04-21T07:32:50.488Z,48.58
2023-04-21T07:35:17.245Z,48.87
2023-04-21T07:37:44.267Z,48.71
2023-04-21T07:40:12.582Z,49.10
2023-04-21T07:42:39.457Z,48.45
2023-04-21T07:45:07.683Z,48.55
2023-04-21T07:47:34.469Z,48.71
2023-04-21T07:50:01.210Z,48.50
2023-04-21T07:52:27.600Z,48.19
2023-04-21T07:54:53.946Z,48.51
2023-04-21T07:57:20.380Z,47.93
2023-04-21T07:59:46.984Z,47.92
2023-04-21T08:02:13.483Z,48.35
2023-04-21T08:04:40.280Z,48.05
2023-04-21T08:07:09.981Z,47.42
2023-04-21T08:09:36.623Z,47.51
2023-04-21T08:12:03.065Z,47.34
2023-04-21T08:14:29.721Z,47.14
2023-04-21T08:16:57.631Z,47.42
2023-04-21T08:19:24.241Z,47.14
2023-04-21T08:21:50.599Z,47.14
2023-04-21T08:24:17.055Z,47.10
2023-04-21T08:26:43.842Z,46.77
2023-04-21T08:29:10.760Z,46.68
2023-04-21T08:31:37.306Z,46.59
2023-04-21T08:34:03.973Z,46.72
2023-04-21T08:36:31.696Z,46.59
2023-04-21T08:38:59.039Z,46.66
2023-04-21T08:41:26.493Z,46.53
2023-04-21T08:43:54.206Z,46.42
2023-04-21T08:46:21.672Z,46.31
2023-04-21T08:48:48.322Z,46.34
2023-04-21T08:51:27.736Z,46.77
2023-04-21T08:53:55.414Z,46.43
2023-04-21T08:56:22.288Z,46.75
2023-04-21T08:58:48.686Z,46.55
2023-04-21T09:01:15.400Z,46.41
2023-04-21T09:03:42.957Z,46.16
2023-04-21T09:06:10.643Z,46.17
2023-04-21T09:08:42.227Z,46.24
2023-04-21T09:11:08.817Z,46.17
2023-04-21T09:13:38.979Z,46.17
2023-04-21T09:16:16.926Z,46.30
2023-04-21T09:18:44.629Z,46.00
2023-04-21T09:21:16.466Z,46.15
2023-04-21T09:23:43.718Z,46.40
2023-04-21T09:26:11.263Z,46.13
2023-04-21T09:28:41.589Z,45.82
2023-04-21T09:31:15.639Z,46.27
2023-04-21T09:33:57.633Z,46.11
2023-04-21T09:36:28.529Z,45.45
2023-04-21T09:41:28.267Z,45.74
2023-04-21T09:43:55.268Z,45.85
2023-04-21T09:46:22.715Z,45.74
2023-04-21T09:48:49.762Z,45.81
2023-04-21T09:53:52.490Z,45.75
2023-04-21T09:56:22.361Z,45.90
2023-04-21T09:58:53.882Z,45.78
2023-04-21T10:01:21.115Z,45.39
2023-04-21T10:03:53.401Z,45.88
2023-04-21T10:06:20.058Z,45.58
2023-04-21T10:08:48.426Z,45.67
2023-04-21T10:11:16.335Z,45.71
2023-04-21T10:13:43.312Z,45.47
2023-04-21T10:16:10.997Z,45.45
2023-04-21T10:18:47.392Z,45.16
2023-04-21T10:21:26.763Z,44.80
2023-04-21T10:23:54.399Z,44.83
2023-04-21T10:26:26.097Z,44.75
2023-04-21T10:29:04.802Z,44.45
2023-04-21T10:31:55.718Z,44.48
2023-04-21T10:34:29.931Z,44.16
2023-04-21T10:36:56.429Z,44.00
2023-04-21T10:39:43.734Z,43.55
2023-04-21T10:42:16.220Z,43.35
2023-04-21T10:44:51.915Z,43.07
2023-04-21T10:47:37.216Z,42.91
2023-04-21T10:50:18.547Z,43.21
2023-04-21T10:52:54.914Z,43.02
2023-04-21T10:55:22.552Z,43.08
2023-04-21T10:57:51.730Z,43.50
2023-04-21T11:00:21.733Z,43.53
2023-04-21T11:02:58.417Z,43.48
2023-04-21T11:05:29.784Z,43.38
2023-04-21T11:08:06.306Z,43.50
2023-04-21T11:10:49.395Z,42.74
2023-04-21T11:13:18.495Z,43.18
2023-04-21T11:16:07.264Z,42.92
2023-04-21T11:18:38.783Z,42.60
2023-04-21T11:21:21.391Z,42.33
2023-04-21T11:23:49.740Z,43.10
2023-04-21T11:26:18.218Z,42.87
2023-04-21T11:28:47.896Z,42.52
2023-04-21T11:31:14.400Z,42.85
2023-04-21T11:33:40.950Z,42.81
2023-04-21T11:36:08.380Z,42.09
2023-04-21T11:38:40.059Z,41.67
2023-04-21T11:41:07.630Z,41.58
2023-04-21T11:43:34.089Z,41.58
2023-04-21T11:46:33.821Z,40.79
2023-04-21T11:49:16.555Z,41.36
2023-04-21T11:51:44.246Z,41.35
2023-04-21T11:54:12.829Z,41.03
2023-04-21T11:56:43.309Z,40.91
2023-04-21T11:59:12.056Z,40.49
2023-04-21T12:01:51.838Z,39.71
2023-04-21T12:04:21.166Z,40.22
2023-04-21T12:07:01.647Z,39.58
2023-04-21T12:09:29.875Z,40.07
2023-04-21T12:11:58.641Z,40.09
2023-04-21T12:14:28.970Z,40.13
2023-04-21T12:16:57.293Z,40.21
2023-04-21T12:19:37.202Z,39.67
2023-04-21T12:22:10.638Z,40.76
2023-04-21T12:24:38.048Z,40.73
2023-04-21T12:27:05.802Z,40.34
2023-04-21T12:29:35.008Z,40.82
2023-04-21T12:32:02.307Z,40.92
2023-04-21T12:34:28.872Z,39.84
2023-04-21T12:36:55.417Z,40.20
2023-04-21T12:39:22.143Z,40.47
2023-04-21T12:41:48.834Z,40.21
2023-04-21T12:44:15.457Z,40.37
2023-04-21T12:46:42.205Z,39.94
2023-04-21T12:49:10.014Z,39.78
2023-04-21T12:51:36.703Z,39.85
2023-04-21T12:54:03.500Z,39.45
2023-04-21T12:56:30.431Z,39.30
2023-04-21T12:58:58.095Z,39.44
2023-04-21T13:01:24.821Z,39.23
2023-04-21T13:03:51.423Z,39.14
2023-04-21T13:06:18.223Z,39.08
2023-04-21T13:08:44.821Z,38.93
2023-04-21T13:11:11.475Z,39.04
2023-04-21T13:13:38.980Z,38.66
2023-04-21T13:16:06.084Z,38.67
2023-04-21T13:18:34.802Z,38.33
2023-04-21T13:21:01.677Z,38.64
2023-04-21T13:23:28.328Z,38.61
2023-04-21T13:25:55.972Z,38.44
2023-04-21T13:28:23.048Z,38.52
2023-04-21T13:30:52.683Z,38.24
2023-04-21T13:33:19.821Z,38.40
2023-04-21T13:35:46.469Z,38.33
2023-04-21T13:38:13.051Z,38.30
2023-04-21T13:40:39.432Z,38.12
2023-04-21T13:43:06.111Z,38.56
2023-04-21T13:45:32.741Z,38.58
2023-04-21T13:47:59.262Z,38.60
2023-04-21T13:50:25.798Z,38.76
2023-04-21T13:52:52.590Z,38.92
2023-04-21T13:55:20.376Z,38.53
2023-04-21T13:57:47.120Z,38.58
2023-04-21T14:00:14.376Z,38.59
2023-04-21T14:02:41.874Z,38.58
2023-04-21T14:05:08.754Z,38.10
2023-04-21T14:07:36.598Z,38.24
2023-04-21T14:10:04.307Z,38.40
2023-04-21T14:12:30.730Z,38.34
2023-04-21T14:14:57.368Z,38.38
2023-04-21T14:17:23.786Z,38.33
2023-04-21T14:19:51.172Z,38.44
2023-04-21T14:22:19.584Z,38.31
2023-04-21T14:24:46.182Z,38.19
2023-04-21T14:27:12.760Z,38.28
2023-04-21T14:29:39.186Z,38.43
2023-04-21T14:32:05.994Z,38.38
2023-04-21T14:34:32.734Z,38.44
2023-04-21T14:37:00.493Z,38.31
2023-04-21T14:39:27.251Z,38.39
2023-04-21T14:41:56.861Z,38.26
2023-04-21T14:44:23.644Z,38.36
2023-04-21T14:47:00.934Z,38.48
2023-04-21T14:49:33.036Z,38.36
2023-04-21T14:51:59.652Z,38.53
2023-04-21T14:54:26.120Z,38.47
2023-04-21T14:56:58.100Z,38.28
2023-04-21T14:59:29.916Z,38.50
2023-04-21T15:01:56.527Z,38.50
2023-04-21T15:04:23.892Z,38.70
2023-04-21T15:06:52.352Z,38.65
2023-04-21T15:09:19.556Z,38.73
2023-04-21T15:11:46.828Z,38.77
2023-04-21T15:14:13.689Z,38.60
2023-04-21T15:16:43.885Z,38.66
2023-04-21T15:19:10.996Z,38.84
2023-04-21T15:21:37.586Z,38.68
2023-04-21T15:24:03.977Z,38.73
2023-04-21T15:26:31.773Z,38.90
2023-04-21T15:28:59.416Z,39.17
2023-04-21T15:31:26.016Z,38.68
2023-04-21T15:33:52.697Z,39.04
2023-04-21T15:36:19.109Z,39.13
2023-04-21T15:38:45.579Z,38.89
2023-04-21T15:41:11.974Z,39.13
2023-04-21T15:43:38.626Z,38.72
2023-04-21T15:46:12.865Z,38.49
2023-04-21T15:48:41.168Z,38.65
2023-04-21T15:51:08.721Z,38.73
2023-04-21T15:53:35.444Z,38.44
2023-04-21T15:56:01.825Z,38.40
2023-04-21T15:58:28.208Z,38.43
2023-04-21T16:00:54.743Z,38.35
2023-04-21T16:03:21.869Z,38.36
2023-04-21T16:05:48.954Z,38.33
2023-04-21T16:08:15.613Z,38.30
2023-04-21T16:10:42.016Z,38.10
2023-04-21T16:13:08.446Z,37.89
2023-04-21T16:15:35.201Z,37.99
2023-04-21T16:18:06.374Z,37.95
2023-04-21T16:20:33.049Z,37.61
2023-04-21T16:22:59.934Z,37.77
2023-04-21T16:25:27.123Z,37.36
2023-04-21T16:27:53.602Z,37.47
2023-04-21T16:30:20.976Z,37.20
2023-04-21T16:32:49.143Z,37.23
2023-04-21T16:35:15.890Z,37.34
2023-04-21T16:37:44.254Z,37.06
2023-04-21T16:40:11.378Z,36.83
2023-04-21T16:42:37.850Z,36.91
2023-04-21T16:45:06.562Z,36.81
2023-04-21T16:47:39.665Z,37.23
2023-04-21T16:50:09.095Z,37.68
2023-04-21T16:52:35.883Z,37.87
2023-04-21T16:55:02.314Z,38.20
2023-04-21T16:57:29.717Z,38.69
2023-04-21T16:59:56.373Z,38.89
2023-04-21T17:02:22.831Z,39.00
2023-04-21T17:04:49.367Z,39.44
2023-04-21T17:07:16.084Z,40.03
2023-04-21T17:09:42.710Z,40.24
2023-04-21T17:12:09.699Z,39.01
2023-04-21T17:14:36.627Z,38.78
2023-04-21T17:17:03.700Z,39.34
2023-04-21T17:19:32.847Z,39.38
2023-04-21T17:21:59.476Z,39.55
2023-04-21T17:24:26.129Z,39.64
2023-04-21T17:26:52.974Z,40.19
2023-04-21T17:29:19.358Z,40.36
2023-04-21T17:31:45.774Z,40.97
2023-04-21T17:34:12.491Z,41.67
2023-04-21T17:36:40.802Z,42.11
2023-04-21T17:39:08.267Z,42.08
2023-04-21T17:41:34.603Z,42.59
2023-04-21T17:44:01.102Z,43.09
2023-04-21T17:46:27.554Z,43.32
2023-04-21T17:48:54.429Z,43.59
2023-04-21T17:51:21.015Z,43.94
2023-04-21T17:53:47.326Z,44.15
2023-04-21T17:56:14.488Z,44.55
2023-04-21T17:58:41.870Z,44.76
2023-04-21T18:01:08.580Z,44.95
2023-04-21T18:03:36.391Z,45.00
2023-04-21T18:06:04.778Z,45.37
2023-04-21T18:08:32.395Z,45.26
2023-04-21T18:10:58.776Z,45.34
2023-04-21T18:13:25.229Z,45.55
2023-04-21T18:15:52.974Z,45.65
2023-04-21T18:18:19.414Z,45.60
2023-04-21T18:20:45.841Z,45.94
2023-04-21T18:23:12.241Z,45.83
2023-04-21T18:25:42.728Z,46.14
2023-04-21T18:28:31.914Z,46.31
2023-04-21T18:30:58.451Z,46.17
2023-04-21T18:33:26.699Z,46.51
2023-04-21T18:35:53.045Z,46.10
2023-04-21T18:38:19.618Z,46.20
2023-04-21T18:40:46.325Z,46.25
2023-04-21T18:43:15.696Z,46.61
2023-04-21T18:45:42.113Z,46.36
2023-04-21T18:48:08.633Z,46.37
2023-04-21T18:50:39.488Z,46.51
2023-04-21T18:53:07.784Z,46.93
2023-04-21T18:55:37.297Z,46.96
2023-04-21T18:58:04.380Z,46.79
2023-04-21T19:00:32.183Z,46.93
2023-04-21T19:03:02.279Z,47.60
2023-04-21T19:05:31.627Z,47.27
2023-04-21T19:07:58.922Z,47.24
2023-04-21T19:10:26.259Z,47.28
2023-04-21T19:12:53.081Z,47.19
2023-04-21T19:15:21.152Z,47.50
2023-04-21T19:17:50.320Z,47.41
2023-04-21T19:20:17.897Z,47.46
2023-04-21T19:22:44.576Z,47.57
2023-04-21T19:25:11.893Z,47.68
2023-04-21T19:27:46.488Z,48.20
2023-04-21T19:30:13.417Z,47.71
2023-04-21T19:32:40.011Z,47.97
2023-04-21T19:35:09.624Z,48.01
2023-04-21T19:37:36.291Z,48.04
2023-04-21T19:40:03.986Z,48.18
2023-04-21T19:42:30.876Z,48.12
2023-04-21T19:44:57.677Z,48.05
2023-04-21T19:47:24.100Z,48.26
2023-04-21T19:49:50.569Z,48.07
2023-04-21T19:52:17.197Z,47.89
2023-04-21T19:54:43.864Z,48.04
2023-04-21T19:57:10.501Z,48.13
2023-04-21T19:59:37.121Z,48.14
2023-04-21T20:02:04.835Z,48.21
2023-04-21T20:04:37.547Z,48.66
2023-04-21T20:07:04.008Z,48.47
2023-04-21T20:09:31.204Z,48.19
2023-04-21T20:11:57.829Z,48.40
2023-04-21T20:14:24.598Z,48.34
2023-04-21T20:16:51.267Z,48.26
2023-04-21T20:19:17.839Z,48.23
2023-04-21T20:21:44.600Z,48.06
2023-04-21T20:24:11.044Z,47.96
2023-04-21T20:26:37.445Z,48.30
2023-04-21T20:29:04.573Z,48.13
2023-04-21T20:31:31.882Z,48.26
2023-04-21T20:34:00.813Z,48.33
2023-04-21T20:36:28.513Z,48.45
2023-04-21T20:38:57.743Z,48.14
2023-04-21T20:41:25.003Z,48.10
2023-04-21T20:43:54.005Z,47.57
2023-04-21T20:46:20.685Z,47.74
2023-04-21T20:48:47.103Z,47.85
2023-04-21T20:51:13.472Z,47.57
2023-04-21T20:53:40.867Z,47.28
2023-04-21T20:56:09.635Z,47.07
2023-04-21T20:58:36.952Z,47.15
2023-04-21T21:01:03.386Z,46.92
2023-04-21T21:03:30.946Z,47.03
2023-04-21T21:05:58.747Z,47.06
2023-04-21T21:08:25.520Z,46.95
2023-04-21T21:10:52.778Z,47.08
2023-04-21T21:13:21.334Z,47.08
2023-04-21T21:15:50.105Z,47.13
2023-04-21T21:18:16.574Z,46.81
2023-04-21T21:20:43.157Z,47.02
2023-04-21T21:23:09.666Z,47.09
2023-04-21T21:25:36.051Z,47.10
2023-04-21T21:28:04.697Z,47.29
2023-04-21T21:30:31.072Z,47.34
2023-04-21T21:32:57.617Z,47.17
2023-04-21T21:35:24.191Z,47.40
2023-04-21T21:37:50.515Z,47.37
2023-04-21T21:40:16.902Z,47.33
2023-04-21T21:42:43.505Z,47.50
2023-04-21T21:45:11.042Z,47.28
2023-04-21T21:47:41.785Z,47.47
2023-04-21T21:50:12.303Z,47.58
2023-04-21T21:52:38.615Z,47.73
2023-04-21T21:55:05.594Z,47.88
2023-04-21T21:57:32.254Z,47.62
2023-04-21T22:00:00.366Z,47.73
2023-04-21T22:02:26.845Z,48.01
2023-04-21T22:04:55.198Z,48.31
2023-04-21T22:07:25.167Z,48.06
2023-04-21T22:09:52.242Z,47.96
2023-04-21T22:12:18.686Z,48.26
2023-04-21T22:14:46.642Z,48.22
2023-04-21T22:17:13.079Z,47.87
2023-04-21T22:19:41.668Z,47.85
2023-04-21T22:22:08.235Z,48.51
2023-04-21T22:24:34.886Z,47.78
2023-04-21T22:27:02.043Z,47.82
2023-04-21T22:29:28.394Z,48.47
2023-04-21T22:31:54.933Z,48.00
2023-04-21T22:34:21.449Z,48.11
2023-04-21T22:36:47.906Z,48.00
2023-04-21T22:39:14.286Z,47.94
2023-04-21T22:41:41.011Z,48.18
2023-04-21T22:44:07.434Z,47.88
2023-04-21T22:46:34.008Z,48.28
2023-04-21T22:49:03.348Z,47.91
2023-04-21T22:51:32.542Z,48.17
2023-04-21T22:54:00.187Z,48.23
2023-04-21T22:56:28.411Z,47.93
2023-04-21T22:58:54.798Z,47.96
2023-04-21T23:01:21.483Z,47.94
2023-04-21T23:03:48.282Z,47.66
2023-04-21T23:06:15.048Z,48.03
2023-04-21T23:08:41.439Z,48.24
2023-04-21T23:11:07.904Z,47.97
2023-04-21T23:13:34.261Z,48.07
2023-04-21T23:16:01.186Z,48.08
2023-04-21T23:18:27.867Z,48.24
2023-04-21T23:20:54.785Z,48.29
2023-04-21T23:23:21.294Z,48.16
2023-04-21T23:25:47.632Z,48.11
2023-04-21T23:28:14.297Z,48.00
2023-04-21T23:30:40.764Z,48.08
2023-04-21T23:33:07.196Z,48.31
2023-04-21T23:35:33.826Z,47.87
2023-04-21T23:38:00.239Z,48.42
2023-04-21T23:40:27.367Z,48.04
2023-04-21T23:42:53.960Z,48.61
2023-04-21T23:45:23.800Z,48.42
2023-04-21T23:47:50.272Z,48.24
2023-04-21T23:50:16.807Z,48.03
2023-04-21T23:52:44.370Z,47.93
2023-04-21T23:55:13.832Z,48.30
2023-04-21T23:57:40.467Z,47.84
